createdAt,value
2018-01-22T00:01:54.956Z,100553.79
2018-01-22T00:04:25.004Z,100550.69
2018-01-22T00:06:54.555Z,100541.98
2018-01-22T00:09:23.822Z,100534.23
2018-01-22T00:11:53.233Z,100524.20
2018-01-22T00:14:22.500Z,100513.75
2018-01-22T00:16:52.528Z,100509.88
2018-01-22T00:19:22.172Z,100501.31
2018-01-22T00:21:51.449Z,100494.37
2018-01-22T00:24:20.714Z,100496.61
2018-01-22T00:26:50.746Z,100492.25
2018-01-22T00:29:21.096Z,100490.55
2018-01-22T00:31:50.373Z,100489.69
2018-01-22T00:34:20.507Z,100476.48
2018-01-22T00:36:49.756Z,100466.84
2018-01-22T00:39:19.035Z,100465.00
2018-01-22T00:41:48.306Z,100463.64
2018-01-22T00:44:17.728Z,100460.15
2018-01-22T00:46:47.032Z,100453.19
2018-01-22T00:49:16.464Z,100456.95
2018-01-22T00:51:45.734Z,100454.25
2018-01-22T00:54:15.015Z,100456.33
2018-01-22T00:56:44.264Z,100448.09
2018-01-22T00:59:13.540Z,100437.82
2018-01-22T01:01:42.812Z,100436.95
2018-01-22T01:04:12.105Z,100427.73
2018-01-22T01:06:41.428Z,100414.62
2018-01-22T01:09:10.692Z,100407.69
2018-01-22T01:11:40.765Z,100400.72
2018-01-22T01:14:10.042Z,100413.64
2018-01-22T01:16:40.270Z,100414.94
2018-01-22T01:19:09.819Z,100395.81
2018-01-22T01:21:39.197Z,100393.09
2018-01-22T01:24:08.494Z,100386.89
2018-01-22T01:26:37.752Z,100390.38
2018-01-22T01:29:07.802Z,100386.94
2018-01-22T01:31:37.074Z,100392.23
2018-01-22T01:34:07.114Z,100395.72
2018-01-22T01:36:46.797Z,100386.88
2018-01-22T01:39:16.264Z,100385.09
2018-01-22T01:41:45.536Z,100384.11
2018-01-22T01:44:15.578Z,100380.68
2018-01-22T01:46:44.853Z,100387.75
2018-01-22T01:49:14.997Z,100379.20
2018-01-22T01:51:44.365Z,100367.43
2018-01-22T01:54:14.397Z,100360.95
2018-01-22T01:56:44.429Z,100357.89
2018-01-22T01:59:13.812Z,100351.47
2018-01-22T02:01:43.870Z,100366.23
2018-01-22T02:04:13.137Z,100364.54
2018-01-22T02:06:43.152Z,100356.73
2018-01-22T02:09:13.366Z,100366.44
2018-01-22T02:11:43.602Z,100363.45
2018-01-22T02:14:13.653Z,100370.03
2018-01-22T02:16:42.922Z,100363.55
2018-01-22T02:19:13.224Z,100367.80
2018-01-22T02:21:42.480Z,100355.22
2018-01-22T02:24:11.824Z,100356.03
2018-01-22T02:26:41.862Z,100345.15
2018-01-22T02:29:11.885Z,100335.11
2018-01-22T02:31:41.245Z,100334.53
2018-01-22T02:34:10.509Z,100320.31
2018-01-22T02:36:39.773Z,100311.16
2018-01-22T02:39:09.830Z,100304.73
2018-01-22T02:41:39.135Z,100292.52
2018-01-22T02:44:08.409Z,100303.41
2018-01-22T02:46:37.770Z,100301.66
2018-01-22T02:49:07.219Z,100302.10
2018-01-22T02:51:36.249Z,100297.25
2018-01-22T02:54:05.719Z,100294.58
2018-01-22T02:56:34.976Z,100289.91
2018-01-22T02:59:04.233Z,100275.53
2018-01-22T03:01:33.517Z,100264.69
2018-01-22T03:04:02.791Z,100261.16
2018-01-22T03:06:32.849Z,100269.75
2018-01-22T03:09:02.252Z,100268.88
2018-01-22T03:11:31.507Z,100266.59
2018-01-22T03:14:00.799Z,100267.84
2018-01-22T03:16:30.052Z,100263.91
2018-01-22T03:19:00.258Z,100255.59
2018-01-22T03:21:29.534Z,100270.02
2018-01-22T03:23:59.573Z,100262.07
2018-01-22T03:26:28.870Z,100265.38
2018-01-22T03:28:58.914Z,100268.77
2018-01-22T03:31:28.165Z,100260.09
2018-01-22T03:33:57.473Z,100259.55
2018-01-22T03:36:27.540Z,100265.65
2018-01-22T03:38:56.850Z,100263.47
2018-01-22T03:41:26.296Z,100263.36
2018-01-22T03:43:56.361Z,100255.08
2018-01-22T03:46:25.629Z,100262.05
2018-01-22T03:48:55.655Z,100264.44
2018-01-22T03:51:24.928Z,100260.45
2018-01-22T03:53:54.180Z,100258.06
2018-01-22T03:56:23.486Z,100253.27
2018-01-22T03:58:52.857Z,100255.87
2018-01-22T04:01:22.132Z,100250.63
2018-01-22T04:03:52.192Z,100249.39
2018-01-22T04:06:21.704Z,100246.06
2018-01-22T04:08:51.205Z,100240.51
2018-01-22T04:11:20.507Z,100238.73
2018-01-22T04:13:49.777Z,100237.19
2018-01-22T04:16:19.817Z,100232.27
2018-01-22T04:18:48.897Z,100233.63
2018-01-22T04:21:18.308Z,100242.47
2018-01-22T04:23:47.582Z,100233.20
2018-01-22T04:26:17.640Z,100229.70
2018-01-22T04:28:47.940Z,100227.53
2018-01-22T04:31:17.970Z,100225.85
2018-01-22T04:33:47.258Z,100229.83
2018-01-22T04:36:17.340Z,100228.15
2018-01-22T04:38:46.678Z,100231.02
2018-01-22T04:41:16.706Z,100223.12
2018-01-22T04:43:45.994Z,100213.79
2018-01-22T04:46:15.816Z,100220.27
2018-01-22T04:48:45.094Z,100210.59
2018-01-22T04:51:15.116Z,100221.88
2018-01-22T04:53:45.165Z,100207.98
2018-01-22T04:56:14.418Z,100205.73
2018-01-22T04:58:43.676Z,100194.78
2018-01-22T05:01:13.175Z,100185.33
2018-01-22T05:03:42.460Z,100178.28
2018-01-22T05:06:11.489Z,100176.91
2018-01-22T05:08:40.768Z,100164.69
2018-01-22T05:11:10.040Z,100159.77
2018-01-22T05:13:40.084Z,100169.36
2018-01-22T05:16:09.495Z,100168.00
2018-01-22T05:18:38.763Z,100164.08
2018-01-22T05:21:08.833Z,100152.61
2018-01-22T05:23:38.193Z,100150.42
2018-01-22T05:26:08.239Z,100151.63
2018-01-22T05:28:37.313Z,100162.09
2018-01-22T05:31:07.337Z,100154.92
2018-01-22T05:33:36.599Z,100156.17
2018-01-22T05:36:07.360Z,100150.44
2018-01-22T05:38:37.584Z,100144.84
2018-01-22T05:41:06.861Z,100143.52
2018-01-22T05:43:36.876Z,100150.31
2018-01-22T05:46:06.908Z,100148.06
2018-01-22T05:48:37.082Z,100145.38
2018-01-22T05:51:06.400Z,100145.81
2018-01-22T05:53:35.664Z,100153.80
2018-01-22T05:56:04.763Z,100147.27
2018-01-22T05:58:33.851Z,100145.02
2018-01-22T06:01:03.214Z,100148.13
2018-01-22T06:03:33.253Z,100152.87
2018-01-22T06:06:02.500Z,100155.41
2018-01-22T06:08:31.778Z,100150.98
2018-01-22T06:11:00.878Z,100152.19
2018-01-22T06:13:30.147Z,100151.23
2018-01-22T06:15:59.632Z,100151.43
2018-01-22T06:18:29.921Z,100154.72
2018-01-22T06:20:59.190Z,100160.34
2018-01-22T06:23:28.440Z,100162.58
2018-01-22T06:25:57.524Z,100163.38
2018-01-22T06:28:26.610Z,100171.12
2018-01-22T06:30:55.873Z,100166.13
2018-01-22T06:33:25.186Z,100171.30
2018-01-22T06:35:54.692Z,100166.55
2018-01-22T06:38:23.988Z,100168.47
2018-01-22T06:40:53.262Z,100172.09
2018-01-22T06:43:23.306Z,100166.50
2018-01-22T06:45:52.592Z,100164.44
2018-01-22T06:48:22.608Z,100164.19
2018-01-22T06:50:52.647Z,100167.14
2018-01-22T06:53:21.911Z,100173.86
2018-01-22T06:55:51.942Z,100172.85
2018-01-22T06:58:21.999Z,100165.28
2018-01-22T07:00:51.302Z,100165.63
2018-01-22T07:03:20.901Z,100176.34
2018-01-22T07:05:50.188Z,100178.29
2018-01-22T07:08:19.453Z,100164.94
2018-01-22T07:10:49.505Z,100152.14
2018-01-22T07:13:18.764Z,100151.05
2018-01-22T07:15:48.793Z,100160.46
2018-01-22T07:18:18.858Z,100162.00
2018-01-22T07:20:48.225Z,100167.17
2018-01-22T07:23:18.280Z,100165.16
2018-01-22T07:25:48.257Z,100174.85
2018-01-22T07:28:17.753Z,100194.82
2018-01-22T07:30:47.970Z,100192.06
2018-01-22T07:33:18.214Z,100195.14
2018-01-22T07:35:48.247Z,100198.91
2018-01-22T07:38:17.656Z,100193.13
2018-01-22T07:40:46.912Z,100184.00
2018-01-22T07:43:16.834Z,100189.55
2018-01-22T07:45:46.922Z,100199.21
2018-01-22T07:48:16.362Z,100195.06
2018-01-22T07:50:46.526Z,100211.23
2018-01-22T07:53:15.905Z,100202.05
2018-01-22T07:55:45.323Z,100191.65
2018-01-22T07:58:14.738Z,100196.38
2018-01-22T08:00:43.980Z,100198.27
2018-01-22T08:03:14.537Z,100190.42
2018-01-22T08:05:43.956Z,100188.41
2018-01-22T08:08:13.238Z,100193.84
2018-01-22T08:10:42.489Z,100197.41
2018-01-22T08:13:11.778Z,100191.80
2018-01-22T08:15:41.052Z,100194.66
2018-01-22T08:18:10.339Z,100192.55
2018-01-22T08:20:40.360Z,100186.87
2018-01-22T08:23:09.781Z,100196.75
2018-01-22T08:25:39.037Z,100204.98
2018-01-22T08:28:09.103Z,100205.64
2018-01-22T08:30:38.578Z,100200.06
2018-01-22T08:33:08.725Z,100203.73
2018-01-22T08:35:38.127Z,100205.80
2018-01-22T08:38:07.393Z,100208.30
2018-01-22T08:40:37.442Z,100210.55
2018-01-22T08:43:06.716Z,100218.03
2018-01-22T08:45:36.821Z,100217.84
2018-01-22T08:48:06.864Z,100228.93
2018-01-22T08:50:36.141Z,100229.86
2018-01-22T08:53:06.177Z,100231.66
2018-01-22T08:55:36.335Z,100226.81
2018-01-22T08:58:05.602Z,100233.17
2018-01-22T09:00:35.667Z,100239.88
2018-01-22T09:03:05.765Z,100236.72
2018-01-22T09:05:35.062Z,100245.20
2018-01-22T09:08:04.346Z,100243.23
2018-01-22T09:10:33.624Z,100245.19
2018-01-22T09:13:03.823Z,100246.30
2018-01-22T09:15:33.118Z,100255.80
2018-01-22T09:18:02.391Z,100257.39
2018-01-22T09:20:31.897Z,100257.72
2018-01-22T09:23:01.176Z,100261.51
2018-01-22T09:25:30.469Z,100255.81
2018-01-22T09:28:00.502Z,100256.87
2018-01-22T09:30:32.738Z,100253.63
2018-01-22T09:33:02.778Z,100245.38
2018-01-22T09:35:32.112Z,100250.73
2018-01-22T09:38:01.402Z,100247.62
2018-01-22T09:40:30.681Z,100250.16
2018-01-22T09:42:59.963Z,100247.64
2018-01-22T09:45:29.999Z,100245.86
2018-01-22T09:47:59.382Z,100255.66
2018-01-22T09:50:29.436Z,100250.53
2018-01-22T09:52:58.844Z,100254.80
2018-01-22T09:55:28.105Z,100255.34
2018-01-22T09:57:58.174Z,100255.73
2018-01-22T10:00:27.433Z,100255.40
2018-01-22T10:02:57.493Z,100258.21
2018-01-22T10:05:26.758Z,100272.83
2018-01-22T10:07:56.908Z,100263.77
2018-01-22T10:10:26.200Z,100267.69
2018-01-22T10:12:56.588Z,100274.94
2018-01-22T10:15:26.859Z,100278.15
2018-01-22T10:17:56.161Z,100283.34
2018-01-22T10:20:25.672Z,100282.50
2018-01-22T10:22:55.066Z,100287.83
2018-01-22T10:25:24.361Z,100284.09
2018-01-22T10:27:53.652Z,100280.44
2018-01-22T10:30:22.927Z,100283.42
2018-01-22T10:32:53.019Z,100284.14
2018-01-22T10:35:22.446Z,100283.55
2018-01-22T10:37:52.520Z,100286.66
2018-01-22T10:40:21.804Z,100285.17
2018-01-22T10:42:51.100Z,100282.10
2018-01-22T10:45:20.607Z,100283.80
2018-01-22T10:47:49.996Z,100284.36
2018-01-22T10:50:19.294Z,100284.30
2018-01-22T10:52:48.519Z,100285.52
2018-01-22T10:55:17.934Z,100285.66
2018-01-22T10:57:47.199Z,100286.77
2018-01-22T11:00:16.584Z,100287.90
2018-01-22T11:02:46.629Z,100292.13
2018-01-22T11:05:15.943Z,100284.48
2018-01-22T11:07:45.216Z,100283.22
2018-01-22T11:10:14.501Z,100278.05
2018-01-22T11:12:44.578Z,100281.20
2018-01-22T11:15:13.652Z,100281.27
2018-01-22T11:17:42.744Z,100277.93
2018-01-22T11:20:12.033Z,100275.19
2018-01-22T11:22:41.316Z,100270.05
2018-01-22T11:25:11.575Z,100278.95
2018-01-22T11:27:40.856Z,100281.74
2018-01-22T11:30:10.138Z,100276.66
2018-01-22T11:32:40.337Z,100272.42
2018-01-22T11:35:09.604Z,100275.52
2018-01-22T11:37:38.887Z,100272.72
2018-01-22T11:40:08.325Z,100278.04
2018-01-22T11:42:37.626Z,100283.97
2018-01-22T11:45:06.918Z,100277.81
2018-01-22T11:47:36.002Z,100285.23
2018-01-22T11:50:05.296Z,100279.80
2018-01-22T11:52:34.677Z,100281.11
2018-01-22T11:55:04.921Z,100282.11
2018-01-22T11:57:34.198Z,100278.11
2018-01-22T12:00:04.524Z,100286.31
2018-01-22T12:02:34.588Z,100289.28
2018-01-22T12:05:03.883Z,100295.34
2018-01-22T12:07:33.180Z,100300.20
2018-01-22T12:10:02.488Z,100302.42
2018-01-22T12:12:31.814Z,100305.08
2018-01-22T12:15:01.038Z,100304.61
2018-01-22T12:17:31.120Z,100301.09
2018-01-22T12:20:00.509Z,100305.00
2018-01-22T12:22:29.792Z,100300.73
2018-01-22T12:24:59.070Z,100299.22
2018-01-22T12:27:28.356Z,100298.53
2018-01-22T12:29:58.379Z,100300.95
2018-01-22T12:32:28.537Z,100301.85
2018-01-22T12:34:57.800Z,100304.93
2018-01-22T12:37:27.847Z,100304.36
2018-01-22T12:39:57.356Z,100302.18
2018-01-22T12:42:26.652Z,100303.97
2018-01-22T12:44:56.166Z,100303.50
2018-01-22T12:47:25.436Z,100303.28
2018-01-22T12:49:55.536Z,100306.66
2018-01-22T12:52:25.568Z,100303.69
2018-01-22T12:54:55.452Z,100306.70
2018-01-22T12:57:24.747Z,100314.04
2018-01-22T12:59:54.029Z,100325.75
2018-01-22T13:02:23.328Z,100326.48
2018-01-22T13:04:52.596Z,100328.40
2018-01-22T13:07:21.890Z,100332.58
2018-01-22T13:09:51.940Z,100332.58
2018-01-22T13:12:21.217Z,100336.58
2018-01-22T13:14:50.514Z,100338.80
2018-01-22T13:17:19.777Z,100347.70
2018-01-22T13:19:49.057Z,100340.53
2018-01-22T13:22:18.383Z,100339.44
2018-01-22T13:24:47.671Z,100343.34
2018-01-22T13:27:17.252Z,100343.18
2018-01-22T13:29:46.550Z,100344.60
2018-01-22T13:32:16.290Z,100342.84
2018-01-22T13:34:45.770Z,100348.97
2018-01-22T13:37:15.157Z,100357.54
2018-01-22T13:39:44.607Z,100362.20
2018-01-22T13:42:13.878Z,100365.64
2018-01-22T13:44:43.402Z,100368.16
2018-01-22T13:47:12.703Z,100371.73
2018-01-22T13:49:42.015Z,100373.66
2018-01-22T13:52:11.276Z,100381.73
2018-01-22T13:54:40.774Z,100373.72
2018-01-22T13:57:10.072Z,100380.89
2018-01-22T13:59:39.378Z,100377.45
2018-01-22T14:02:08.711Z,100385.00
2018-01-22T14:04:38.023Z,100391.71
2018-01-22T14:07:07.291Z,100399.52
2018-01-22T14:09:36.645Z,100402.45
2018-01-22T14:12:06.726Z,100409.42
2018-01-22T14:14:36.105Z,100408.76
2018-01-22T14:17:05.474Z,100411.06
2018-01-22T14:19:35.497Z,100415.13
2018-01-22T14:22:05.571Z,100421.84
2018-01-22T14:24:34.960Z,100428.92
2018-01-22T14:27:04.450Z,100439.66
2018-01-22T14:29:33.795Z,100442.73
2018-01-22T14:32:03.156Z,100441.11
2018-01-22T14:34:32.426Z,100448.25
2018-01-22T14:37:02.675Z,100447.45
2018-01-22T14:39:31.960Z,100449.45
2018-01-22T14:42:01.258Z,100451.77
2018-01-22T14:44:31.365Z,100457.16
2018-01-22T14:47:00.645Z,100455.61
2018-01-22T14:49:29.930Z,100471.64
2018-01-22T14:51:59.404Z,100477.05
2018-01-22T14:54:28.890Z,100486.03
2018-01-22T14:56:58.927Z,100494.98
2018-01-22T14:59:28.215Z,100500.55
2018-01-22T15:01:57.528Z,100510.45
2018-01-22T15:04:26.808Z,100508.51
2018-01-22T15:06:56.232Z,100511.00
2018-01-22T15:09:25.526Z,100517.78
2018-01-22T15:11:54.814Z,100509.17
2018-01-22T15:14:24.831Z,100513.41
2018-01-22T15:16:54.698Z,100514.20
2018-01-22T15:19:24.086Z,100524.49
2018-01-22T15:21:53.184Z,100531.67
2018-01-22T15:24:22.470Z,100528.72
2018-01-22T15:26:51.767Z,100535.02
2018-01-22T15:29:20.866Z,100535.19
2018-01-22T15:31:50.127Z,100549.02
2018-01-22T15:34:20.168Z,100551.86
2018-01-22T15:36:49.788Z,100564.73
2018-01-22T15:39:19.918Z,100567.97
2018-01-22T15:41:49.192Z,100576.50
2018-01-22T15:44:18.521Z,100581.09
2018-01-22T15:46:47.874Z,100588.28
2018-01-22T15:49:17.966Z,100589.71
2018-01-22T15:51:47.242Z,100590.31
2018-01-22T15:54:16.591Z,100596.20
2018-01-22T15:56:46.656Z,100614.34
2018-01-22T15:59:16.163Z,100628.12
2018-01-22T16:01:45.659Z,100642.78
2018-01-22T16:04:15.327Z,100647.80
2018-01-22T16:06:45.660Z,100648.00
2018-01-22T16:09:15.930Z,100645.95
2018-01-22T16:11:45.205Z,100654.39
2018-01-22T16:14:14.485Z,100654.93
2018-01-22T16:16:44.565Z,100662.48
2018-01-22T16:19:14.226Z,100667.92
2018-01-22T16:21:44.390Z,100675.95
2018-01-22T16:24:13.714Z,100682.28
2018-01-22T16:26:43.796Z,100690.28
2018-01-22T16:29:13.064Z,100694.81
2018-01-22T16:31:43.165Z,100705.91
2018-01-22T16:34:12.588Z,100714.72
2018-01-22T16:36:42.662Z,100731.53
2018-01-22T16:39:12.066Z,100735.11
2018-01-22T16:41:41.448Z,100741.80
2018-01-22T16:44:10.839Z,100747.51
2018-01-22T16:46:40.151Z,100750.62
2018-01-22T16:49:09.618Z,100761.67
2018-01-22T16:51:39.704Z,100768.78
2018-01-22T16:54:08.969Z,100772.31
2018-01-22T16:56:38.254Z,100777.23
2018-01-22T16:59:07.597Z,100782.14
2018-01-22T17:01:36.868Z,100775.94
2018-01-22T17:04:06.381Z,100779.09
2018-01-22T17:06:35.673Z,100786.14
2018-01-22T17:09:04.372Z,100788.86
2018-01-22T17:11:33.757Z,100790.25
2018-01-22T17:14:03.043Z,100798.69
2018-01-22T17:16:33.329Z,100800.56
2018-01-22T17:19:02.594Z,100808.52
2018-01-22T17:21:31.874Z,100809.83
2018-01-22T17:24:01.159Z,100808.08
2018-01-22T17:26:30.558Z,100814.30
2018-01-22T17:29:00.514Z,100823.98
2018-01-22T17:31:30.145Z,100823.53
2018-01-22T17:33:59.729Z,100825.74
2018-01-22T17:36:29.014Z,100838.88
2018-01-22T17:38:58.359Z,100844.52
2018-01-22T17:41:27.624Z,100848.09
2018-01-22T17:43:56.926Z,100853.83
2018-01-22T17:46:26.198Z,100856.96
2018-01-22T17:48:56.241Z,100857.41
2018-01-22T17:51:26.122Z,100860.51
2018-01-22T17:53:55.513Z,100866.30
2018-01-22T17:56:25.615Z,100872.02
2018-01-22T17:58:54.891Z,100872.10
2018-01-22T18:01:23.972Z,100879.16
2018-01-22T18:03:53.619Z,100884.43
2018-01-22T18:06:23.013Z,100896.74
2018-01-22T18:08:52.457Z,100896.74
2018-01-22T18:11:22.590Z,100902.09
2018-01-22T18:13:52.632Z,100913.12
2018-01-22T18:16:21.918Z,100914.02
2018-01-22T18:18:51.361Z,100913.99
2018-01-22T18:21:20.718Z,100918.41
2018-01-22T18:23:50.757Z,100925.86
2018-01-22T18:26:20.056Z,100922.56
2018-01-22T18:28:49.876Z,100926.95
2018-01-22T18:31:20.307Z,100928.67
2018-01-22T18:33:49.742Z,100938.34
2018-01-22T18:36:19.240Z,100944.51
2018-01-22T18:38:48.593Z,100957.32
2018-01-22T18:41:17.872Z,100961.73
2018-01-22T18:43:48.072Z,100965.74
2018-01-22T18:46:18.258Z,100979.39
2018-01-22T18:48:47.580Z,100976.80
2018-01-22T18:51:16.997Z,100982.98
2018-01-22T18:53:46.844Z,100988.27
2018-01-22T18:56:17.011Z,100989.15
2018-01-22T18:58:46.628Z,101000.21
2018-01-22T19:01:15.930Z,101002.47
2018-01-22T19:03:45.311Z,101003.79
2018-01-22T19:06:14.638Z,101005.55
2018-01-22T19:08:43.968Z,101006.45
2018-01-22T19:11:14.445Z,101014.36
2018-01-22T19:13:43.775Z,101013.96
2018-01-22T19:16:13.169Z,101019.26
2018-01-22T19:18:42.547Z,101024.92
2018-01-22T19:21:12.240Z,101035.00
2018-01-22T19:23:41.611Z,101034.95
2018-01-22T19:26:10.979Z,101039.80
2018-01-22T19:28:40.252Z,101042.48
2018-01-22T19:31:09.664Z,101052.16
2018-01-22T19:33:39.126Z,101048.14
2018-01-22T19:36:11.007Z,101054.74
2018-01-22T19:38:40.771Z,101062.66
2018-01-22T19:41:10.133Z,101065.75
2018-01-22T19:43:39.482Z,101081.56
2018-01-22T19:46:08.985Z,101083.31
2018-01-22T19:48:38.421Z,101078.94
2018-01-22T19:51:08.618Z,101078.88
2018-01-22T19:53:38.092Z,101084.13
2018-01-22T19:56:07.403Z,101082.38
2018-01-22T19:58:36.862Z,101084.59
2018-01-22T20:01:07.309Z,101091.62
2018-01-22T20:03:36.588Z,101106.59
2018-01-22T20:06:07.094Z,101111.46
2018-01-22T20:08:36.665Z,101115.80
2018-01-22T20:11:06.234Z,101109.66
2018-01-22T20:13:35.705Z,101121.59
2018-01-22T20:16:07.325Z,101125.61
2018-01-22T20:18:36.703Z,101129.15
2018-01-22T20:21:07.986Z,101139.64
2018-01-22T20:23:37.384Z,101134.80
2018-01-22T20:26:06.658Z,101137.48
2018-01-22T20:28:36.873Z,101144.97
2018-01-22T20:31:07.025Z,101154.64
2018-01-22T20:33:36.998Z,101160.30
2018-01-22T20:36:07.125Z,101163.39
2018-01-22T20:38:37.697Z,101177.52
2018-01-22T20:41:07.033Z,101191.16
2018-01-22T20:43:36.808Z,101186.80
2018-01-22T20:46:05.986Z,101181.09
2018-01-22T20:48:35.340Z,101190.78
2018-01-22T20:51:05.084Z,101187.32
2018-01-22T20:53:34.475Z,101188.66
2018-01-22T20:56:04.544Z,101186.95
2018-01-22T20:58:33.896Z,101187.02
2018-01-22T21:01:04.019Z,101196.27
2018-01-22T21:03:34.083Z,101202.09
2018-01-22T21:06:03.597Z,101198.64
2018-01-22T21:08:33.014Z,101209.66
2018-01-22T21:11:02.315Z,101218.51
2018-01-22T21:13:31.662Z,101210.78
2018-01-22T21:16:01.918Z,101206.89
2018-01-22T21:18:31.210Z,101217.53
2018-01-22T21:21:00.721Z,101221.53
2018-01-22T21:23:30.140Z,101232.98
2018-01-22T21:25:59.442Z,101234.35
2018-01-22T21:28:28.731Z,101248.04
2018-01-22T21:30:57.992Z,101240.08
2018-01-22T21:33:28.073Z,101245.41
2018-01-22T21:35:57.358Z,101248.05
2018-01-22T21:38:26.643Z,101258.22
2018-01-22T21:40:55.974Z,101257.29
2018-01-22T21:43:25.257Z,101244.16
2018-01-22T21:45:54.761Z,101249.88
2018-01-22T21:48:24.046Z,101251.63
2018-01-22T21:50:53.385Z,101255.53
2018-01-22T21:53:22.684Z,101255.16
2018-01-22T21:55:52.001Z,101259.29
2018-01-22T21:58:21.355Z,101280.89
2018-01-22T22:00:50.612Z,101277.45
2018-01-22T22:03:19.888Z,101282.27
2018-01-22T22:05:49.314Z,101279.57
2018-01-22T22:08:18.588Z,101290.52
2018-01-22T22:10:47.875Z,101294.41
2018-01-22T22:13:17.183Z,101285.50
2018-01-22T22:15:46.455Z,101294.66
2018-01-22T22:18:15.751Z,101305.13
2018-01-22T22:20:45.610Z,101302.94
2018-01-22T22:23:15.144Z,101316.00
2018-01-22T22:25:45.222Z,101322.55
2018-01-22T22:28:14.849Z,101324.79
2018-01-22T22:30:44.148Z,101341.01
2018-01-22T22:33:13.440Z,101345.71
2018-01-22T22:35:42.926Z,101355.78
2018-01-22T22:38:12.388Z,101355.38
2018-01-22T22:40:41.941Z,101351.31
2018-01-22T22:43:11.215Z,101356.08
2018-01-22T22:45:40.575Z,101366.08
2018-01-22T22:48:09.937Z,101378.39
2018-01-22T22:50:39.447Z,101369.55
2018-01-22T22:53:08.760Z,101374.88
2018-01-22T22:55:38.140Z,101380.58
2018-01-22T22:58:07.404Z,101378.82
2018-01-22T23:00:37.768Z,101385.92
2018-01-22T23:03:07.063Z,101403.64
2018-01-22T23:05:37.106Z,101388.69
2018-01-22T23:08:06.391Z,101392.27
2018-01-22T23:10:35.654Z,101394.59
2018-01-22T23:13:05.689Z,101408.73
2018-01-22T23:15:34.946Z,101410.09
2018-01-22T23:18:04.201Z,101396.98
2018-01-22T23:20:33.490Z,101398.42
2018-01-22T23:23:02.779Z,101404.75
2018-01-22T23:25:32.825Z,101401.53
2018-01-22T23:28:02.088Z,101413.69
2018-01-22T23:30:32.142Z,101413.44
2018-01-22T23:33:01.417Z,101417.94
2018-01-22T23:35:31.454Z,101420.19
2018-01-22T23:38:00.878Z,101419.83
2018-01-22T23:40:30.267Z,101429.92
2018-01-22T23:42:59.576Z,101428.65
2018-01-22T23:45:28.840Z,101433.00
2018-01-22T23:47:58.892Z,101436.52
2018-01-22T23:50:28.180Z,101437.34
2018-01-22T23:52:57.195Z,101452.28
2018-01-22T23:55:26.722Z,101451.39
2018-01-22T23:57:56.087Z,101452.73
